sensor_id;sensor_type;location;lat;lon;timestamp;P1;durP1;ratioP1;P2;durP2;ratioP2
69900;SDS011;57183;50.930;5.406;2023-07-09T00:02:16;6.97;;;5.78;;
69900;SDS011;57183;50.930;5.406;2023-07-09T00:04:43;6.43;;;5.40;;
69900;SDS011;57183;50.930;5.406;2023-07-09T00:09:41;10.25;;;6.28;;
69900;SDS011;57183;50.930;5.406;2023-07-09T00:12:10;7.80;;;6.35;;
69900;SDS011;57183;50.930;5.406;2023-07-09T00:14:39;7.68;;;5.85;;
69900;SDS011;57183;50.930;5.406;2023-07-09T00:17:08;7.43;;;6.22;;
69900;SDS011;57183;50.930;5.406;2023-07-09T00:19:50;10.73;;;7.10;;
69900;SDS011;57183;50.930;5.406;2023-07-09T00:22:17;9.25;;;6.38;;
69900;SDS011;57183;50.930;5.406;2023-07-09T00:24:44;8.25;;;5.95;;
69900;SDS011;57183;50.930;5.406;2023-07-09T00:27:12;8.43;;;5.93;;
69900;SDS011;57183;50.930;5.406;2023-07-09T00:29:40;8.00;;;6.78;;
69900;SDS011;57183;50.930;5.406;2023-07-09T00:32:11;8.18;;;6.65;;
69900;SDS011;57183;50.930;5.406;2023-07-09T00:34:44;8.40;;;6.38;;
69900;SDS011;57183;50.930;5.406;2023-07-09T00:37:16;7.68;;;6.38;;
69900;SDS011;57183;50.930;5.406;2023-07-09T00:39:44;9.48;;;6.07;;
69900;SDS011;57183;50.930;5.406;2023-07-09T00:42:15;7.45;;;6.57;;
69900;SDS011;57183;50.930;5.406;2023-07-09T00:44:46;9.13;;;6.40;;
69900;SDS011;57183;50.930;5.406;2023-07-09T00:47:31;7.65;;;6.25;;
69900;SDS011;57183;50.930;5.406;2023-07-09T00:50:49;6.80;;;5.70;;
69900;SDS011;57183;50.930;5.406;2023-07-09T00:53:13;10.35;;;5.97;;
69900;SDS011;57183;50.930;5.406;2023-07-09T00:55:43;6.95;;;5.60;;
69900;SDS011;57183;50.930;5.406;2023-07-09T00:58:11;7.25;;;5.30;;
69900;SDS011;57183;50.930;5.406;2023-07-09T01:00:47;7.03;;;5.47;;
69900;SDS011;57183;50.930;5.406;2023-07-09T01:04:02;9.63;;;6.03;;
69900;SDS011;57183;50.930;5.406;2023-07-09T01:06:07;7.90;;;5.57;;
69900;SDS011;57183;50.930;5.406;2023-07-09T01:08:34;9.02;;;7.03;;
69900;SDS011;57183;50.930;5.406;2023-07-09T01:11:02;10.00;;;6.82;;
69900;SDS011;57183;50.930;5.406;2023-07-09T01:13:28;9.05;;;6.60;;
69900;SDS011;57183;50.930;5.406;2023-07-09T01:15:57;6.57;;;5.55;;
69900;SDS011;57183;50.930;5.406;2023-07-09T01:18:24;9.45;;;5.90;;
69900;SDS011;57183;50.930;5.406;2023-07-09T01:21:01;8.95;;;6.90;;
69900;SDS011;57183;50.930;5.406;2023-07-09T01:23:32;12.18;;;6.78;;
69900;SDS011;57183;50.930;5.406;2023-07-09T01:25:58;10.32;;;6.05;;
69900;SDS011;57183;50.930;5.406;2023-07-09T01:28:24;9.60;;;6.72;;
69900;SDS011;57183;50.930;5.406;2023-07-09T01:30:49;7.43;;;6.25;;
69900;SDS011;57183;50.930;5.406;2023-07-09T01:33:19;7.88;;;6.80;;
69900;SDS011;57183;50.930;5.406;2023-07-09T01:35:46;9.35;;;6.35;;
69900;SDS011;57183;50.930;5.406;2023-07-09T01:38:12;7.47;;;6.25;;
69900;SDS011;57183;50.930;5.406;2023-07-09T01:40:38;6.93;;;6.22;;
69900;SDS011;57183;50.930;5.406;2023-07-09T01:43:04;11.80;;;6.10;;
69900;SDS011;57183;50.930;5.406;2023-07-09T01:45:31;10.98;;;6.63;;
69900;SDS011;57183;50.930;5.406;2023-07-09T01:47:59;9.68;;;6.90;;
69900;SDS011;57183;50.930;5.406;2023-07-09T01:50:25;9.07;;;5.95;;
69900;SDS011;57183;50.930;5.406;2023-07-09T01:52:52;9.13;;;6.18;;
69900;SDS011;57183;50.930;5.406;2023-07-09T01:55:18;7.85;;;6.65;;
69900;SDS011;57183;50.930;5.406;2023-07-09T01:57:44;10.43;;;6.90;;
69900;SDS011;57183;50.930;5.406;2023-07-09T02:00:11;9.38;;;7.53;;
69900;SDS011;57183;50.930;5.406;2023-07-09T02:02:39;9.82;;;7.20;;
69900;SDS011;57183;50.930;5.406;2023-07-09T02:05:10;10.65;;;6.88;;
69900;SDS011;57183;50.930;5.406;2023-07-09T02:07:37;12.23;;;6.82;;
69900;SDS011;57183;50.930;5.406;2023-07-09T02:10:03;7.72;;;6.93;;
69900;SDS011;57183;50.930;5.406;2023-07-09T02:12:29;9.07;;;6.35;;
69900;SDS011;57183;50.930;5.406;2023-07-09T02:14:55;12.15;;;6.05;;
69900;SDS011;57183;50.930;5.406;2023-07-09T02:17:21;6.63;;;5.60;;
69900;SDS011;57183;50.930;5.406;2023-07-09T02:19:46;6.93;;;6.22;;
69900;SDS011;57183;50.930;5.406;2023-07-09T02:22:12;11.30;;;6.90;;
69900;SDS011;57183;50.930;5.406;2023-07-09T02:24:38;8.30;;;6.05;;
69900;SDS011;57183;50.930;5.406;2023-07-09T02:27:05;7.90;;;6.28;;
69900;SDS011;57183;50.930;5.406;2023-07-09T02:29:32;10.98;;;6.28;;
69900;SDS011;57183;50.930;5.406;2023-07-09T02:31:59;15.05;;;6.20;;
69900;SDS011;57183;50.930;5.406;2023-07-09T02:34:26;8.38;;;7.03;;
69900;SDS011;57183;50.930;5.406;2023-07-09T02:36:52;9.25;;;6.50;;
69900;SDS011;57183;50.930;5.406;2023-07-09T02:39:18;6.35;;;5.75;;
69900;SDS011;57183;50.930;5.406;2023-07-09T02:41:44;8.70;;;6.30;;
69900;SDS011;57183;50.930;5.406;2023-07-09T02:44:10;7.18;;;6.47;;
69900;SDS011;57183;50.930;5.406;2023-07-09T02:46:36;8.18;;;6.63;;
69900;SDS011;57183;50.930;5.406;2023-07-09T02:49:05;8.15;;;6.88;;
69900;SDS011;57183;50.930;5.406;2023-07-09T02:51:32;8.55;;;7.32;;
69900;SDS011;57183;50.930;5.406;2023-07-09T02:54:00;8.75;;;7.05;;
69900;SDS011;57183;50.930;5.406;2023-07-09T02:56:26;10.82;;;7.15;;
69900;SDS011;57183;50.930;5.406;2023-07-09T02:58:52;9.32;;;6.90;;
69900;SDS011;57183;50.930;5.406;2023-07-09T03:01:18;12.27;;;6.95;;
69900;SDS011;57183;50.930;5.406;2023-07-09T03:03:46;10.38;;;7.03;;
69900;SDS011;57183;50.930;5.406;2023-07-09T03:06:12;15.48;;;6.13;;
69900;SDS011;57183;50.930;5.406;2023-07-09T03:08:38;8.85;;;6.10;;
69900;SDS011;57183;50.930;5.406;2023-07-09T03:11:10;7.78;;;6.68;;
69900;SDS011;57183;50.930;5.406;2023-07-09T03:13:37;10.15;;;7.07;;
69900;SDS011;57183;50.930;5.406;2023-07-09T03:16:02;9.38;;;6.72;;
69900;SDS011;57183;50.930;5.406;2023-07-09T03:18:28;6.47;;;5.85;;
69900;SDS011;57183;50.930;5.406;2023-07-09T03:20:54;10.10;;;7.25;;
69900;SDS011;57183;50.930;5.406;2023-07-09T03:23:20;7.97;;;6.88;;
69900;SDS011;57183;50.930;5.406;2023-07-09T03:25:46;11.27;;;6.55;;
69900;SDS011;57183;50.930;5.406;2023-07-09T03:28:12;10.25;;;6.90;;
69900;SDS011;57183;50.930;5.406;2023-07-09T03:30:41;8.07;;;6.40;;
69900;SDS011;57183;50.930;5.406;2023-07-09T03:33:09;8.68;;;6.35;;
69900;SDS011;57183;50.930;5.406;2023-07-09T03:35:35;12.40;;;6.28;;
69900;SDS011;57183;50.930;5.406;2023-07-09T03:38:03;10.43;;;7.45;;
69900;SDS011;57183;50.930;5.406;2023-07-09T03:40:30;10.38;;;7.13;;
69900;SDS011;57183;50.930;5.406;2023-07-09T03:42:56;11.65;;;7.55;;
69900;SDS011;57183;50.930;5.406;2023-07-09T03:45:21;10.30;;;7.45;;
69900;SDS011;57183;50.930;5.406;2023-07-09T03:47:47;9.82;;;7.50;;
69900;SDS011;57183;50.930;5.406;2023-07-09T03:50:13;9.70;;;7.55;;
69900;SDS011;57183;50.930;5.406;2023-07-09T03:52:40;8.50;;;7.35;;
69900;SDS011;57183;50.930;5.406;2023-07-09T03:55:06;7.93;;;7.10;;
69900;SDS011;57183;50.930;5.406;2023-07-09T03:57:32;10.43;;;7.45;;
69900;SDS011;57183;50.930;5.406;2023-07-09T03:59:59;11.43;;;6.97;;
69900;SDS011;57183;50.930;5.406;2023-07-09T04:02:25;10.90;;;7.15;;
69900;SDS011;57183;50.930;5.406;2023-07-09T04:04:51;7.18;;;6.47;;
69900;SDS011;57183;50.930;5.406;2023-07-09T04:07:16;8.50;;;7.05;;
69900;SDS011;57183;50.930;5.406;2023-07-09T04:09:42;15.98;;;8.20;;
69900;SDS011;57183;50.930;5.406;2023-07-09T04:12:08;9.95;;;7.40;;
69900;SDS011;57183;50.930;5.406;2023-07-09T04:14:34;7.97;;;6.95;;
69900;SDS011;57183;50.930;5.406;2023-07-09T04:17:01;8.93;;;7.40;;
69900;SDS011;57183;50.930;5.406;2023-07-09T04:19:27;9.75;;;7.85;;
69900;SDS011;57183;50.930;5.406;2023-07-09T04:21:53;8.10;;;6.78;;
69900;SDS011;57183;50.930;5.406;2023-07-09T04:24:19;8.45;;;6.70;;
69900;SDS011;57183;50.930;5.406;2023-07-09T04:26:46;9.48;;;6.60;;
69900;SDS011;57183;50.930;5.406;2023-07-09T04:29:12;12.00;;;7.53;;
69900;SDS011;57183;50.930;5.406;2023-07-09T04:31:39;7.40;;;6.50;;
69900;SDS011;57183;50.930;5.406;2023-07-09T04:34:05;9.60;;;6.60;;
69900;SDS011;57183;50.930;5.406;2023-07-09T04:36:31;10.00;;;6.35;;
69900;SDS011;57183;50.930;5.406;2023-07-09T04:38:57;8.00;;;6.80;;
69900;SDS011;57183;50.930;5.406;2023-07-09T04:41:23;7.28;;;5.80;;
69900;SDS011;57183;50.930;5.406;2023-07-09T04:43:49;9.25;;;6.75;;
69900;SDS011;57183;50.930;5.406;2023-07-09T04:46:15;9.18;;;7.53;;
69900;SDS011;57183;50.930;5.406;2023-07-09T04:48:41;9.15;;;6.38;;
69900;SDS011;57183;50.930;5.406;2023-07-09T04:51:06;9.13;;;6.72;;
69900;SDS011;57183;50.930;5.406;2023-07-09T04:53:32;7.78;;;6.43;;
69900;SDS011;57183;50.930;5.406;2023-07-09T04:55:58;8.73;;;6.07;;
69900;SDS011;57183;50.930;5.406;2023-07-09T04:58:23;9.75;;;6.25;;
69900;SDS011;57183;50.930;5.406;2023-07-09T05:00:49;9.68;;;5.90;;
69900;SDS011;57183;50.930;5.406;2023-07-09T05:03:16;8.45;;;6.68;;
69900;SDS011;57183;50.930;5.406;2023-07-09T05:05:44;6.25;;;5.60;;
69900;SDS011;57183;50.930;5.406;2023-07-09T05:08:10;9.55;;;6.43;;
69900;SDS011;57183;50.930;5.406;2023-07-09T05:10:43;13.48;;;6.90;;
69900;SDS011;57183;50.930;5.406;2023-07-09T05:13:15;8.20;;;6.97;;
69900;SDS011;57183;50.930;5.406;2023-07-09T05:15:41;11.07;;;7.18;;
69900;SDS011;57183;50.930;5.406;2023-07-09T05:18:12;7.20;;;6.38;;
69900;SDS011;57183;50.930;5.406;2023-07-09T05:20:39;8.18;;;7.22;;
69900;SDS011;57183;50.930;5.406;2023-07-09T05:23:05;7.88;;;6.85;;
69900;SDS011;57183;50.930;5.406;2023-07-09T05:25:31;11.55;;;7.78;;
69900;SDS011;57183;50.930;5.406;2023-07-09T05:27:57;9.57;;;6.90;;
69900;SDS011;57183;50.930;5.406;2023-07-09T05:30:22;12.23;;;7.47;;
69900;SDS011;57183;50.930;5.406;2023-07-09T05:32:48;15.38;;;8.70;;
69900;SDS011;57183;50.930;5.406;2023-07-09T05:35:14;9.35;;;7.60;;
69900;SDS011;57183;50.930;5.406;2023-07-09T05:37:40;9.60;;;6.82;;
69900;SDS011;57183;50.930;5.406;2023-07-09T05:40:06;8.00;;;7.30;;
69900;SDS011;57183;50.930;5.406;2023-07-09T05:42:33;15.45;;;7.82;;
69900;SDS011;57183;50.930;5.406;2023-07-09T05:44:59;11.35;;;7.40;;
69900;SDS011;57183;50.930;5.406;2023-07-09T05:47:25;9.80;;;7.03;;
69900;SDS011;57183;50.930;5.406;2023-07-09T05:49:51;9.48;;;6.72;;
69900;SDS011;57183;50.930;5.406;2023-07-09T05:52:17;10.95;;;7.22;;
69900;SDS011;57183;50.930;5.406;2023-07-09T05:54:45;11.30;;;7.18;;
69900;SDS011;57183;50.930;5.406;2023-07-09T05:57:11;8.60;;;6.55;;
69900;SDS011;57183;50.930;5.406;2023-07-09T05:59:37;7.20;;;6.10;;
69900;SDS011;57183;50.930;5.406;2023-07-09T06:02:02;6.90;;;5.68;;
69900;SDS011;57183;50.930;5.406;2023-07-09T06:04:29;9.45;;;6.63;;
69900;SDS011;57183;50.930;5.406;2023-07-09T06:06:56;8.15;;;5.85;;
69900;SDS011;57183;50.930;5.406;2023-07-09T06:09:22;6.22;;;5.35;;
69900;SDS011;57183;50.930;5.406;2023-07-09T06:11:48;11.90;;;5.82;;
69900;SDS011;57183;50.930;5.406;2023-07-09T06:14:13;9.50;;;5.85;;
69900;SDS011;57183;50.930;5.406;2023-07-09T06:16:40;8.13;;;5.25;;
69900;SDS011;57183;50.930;5.406;2023-07-09T06:19:05;8.05;;;4.88;;
69900;SDS011;57183;50.930;5.406;2023-07-09T06:21:31;9.00;;;5.53;;
69900;SDS011;57183;50.930;5.406;2023-07-09T06:23:57;7.85;;;5.88;;
69900;SDS011;57183;50.930;5.406;2023-07-09T06:26:23;6.75;;;5.22;;
69900;SDS011;57183;50.930;5.406;2023-07-09T06:28:48;7.45;;;5.13;;
69900;SDS011;57183;50.930;5.406;2023-07-09T06:31:14;9.07;;;5.03;;
69900;SDS011;57183;50.930;5.406;2023-07-09T06:33:40;6.20;;;4.95;;
69900;SDS011;57183;50.930;5.406;2023-07-09T06:36:05;6.70;;;5.03;;
69900;SDS011;57183;50.930;5.406;2023-07-09T06:38:31;6.80;;;4.65;;
69900;SDS011;57183;50.930;5.406;2023-07-09T06:40:57;12.52;;;6.45;;
69900;SDS011;57183;50.930;5.406;2023-07-09T06:43:23;6.78;;;4.95;;
69900;SDS011;57183;50.930;5.406;2023-07-09T06:45:55;8.43;;;4.40;;
69900;SDS011;57183;50.930;5.406;2023-07-09T06:48:23;5.97;;;4.70;;
69900;SDS011;57183;50.930;5.406;2023-07-09T06:50:49;10.32;;;5.00;;
69900;SDS011;57183;50.930;5.406;2023-07-09T06:53:16;6.72;;;4.35;;
69900;SDS011;57183;50.930;5.406;2023-07-09T06:55:42;8.90;;;4.85;;
69900;SDS011;57183;50.930;5.406;2023-07-09T06:58:08;9.63;;;4.90;;
69900;SDS011;57183;50.930;5.406;2023-07-09T07:00:35;6.72;;;4.60;;
69900;SDS011;57183;50.930;5.406;2023-07-09T07:03:01;7.68;;;4.70;;
69900;SDS011;57183;50.930;5.406;2023-07-09T07:05:27;9.07;;;4.25;;
69900;SDS011;57183;50.930;5.406;2023-07-09T07:07:52;5.82;;;4.20;;
69900;SDS011;57183;50.930;5.406;2023-07-09T07:10:18;8.68;;;4.55;;
69900;SDS011;57183;50.930;5.406;2023-07-09T07:12:45;4.63;;;4.10;;
69900;SDS011;57183;50.930;5.406;2023-07-09T07:15:14;6.97;;;4.68;;
69900;SDS011;57183;50.930;5.406;2023-07-09T07:17:41;7.80;;;4.38;;
69900;SDS011;57183;50.930;5.406;2023-07-09T07:20:08;8.77;;;4.53;;
69900;SDS011;57183;50.930;5.406;2023-07-09T07:22:35;6.65;;;4.60;;
69900;SDS011;57183;50.930;5.406;2023-07-09T07:25:01;10.02;;;5.10;;
69900;SDS011;57183;50.930;5.406;2023-07-09T07:27:28;7.10;;;4.63;;
69900;SDS011;57183;50.930;5.406;2023-07-09T07:29:53;7.05;;;3.67;;
69900;SDS011;57183;50.930;5.406;2023-07-09T07:32:19;5.05;;;3.85;;
69900;SDS011;57183;50.930;5.406;2023-07-09T07:34:46;3.92;;;3.50;;
69900;SDS011;57183;50.930;5.406;2023-07-09T07:37:13;3.90;;;3.30;;
69900;SDS011;57183;50.930;5.406;2023-07-09T07:39:38;8.60;;;3.95;;
69900;SDS011;57183;50.930;5.406;2023-07-09T07:42:04;3.83;;;3.42;;
69900;SDS011;57183;50.930;5.406;2023-07-09T07:44:30;5.47;;;3.40;;
69900;SDS011;57183;50.930;5.406;2023-07-09T07:46:56;5.95;;;3.40;;
69900;SDS011;57183;50.930;5.406;2023-07-09T07:49:21;5.85;;;4.10;;
69900;SDS011;57183;50.930;5.406;2023-07-09T07:51:47;4.68;;;3.40;;
69900;SDS011;57183;50.930;5.406;2023-07-09T07:54:13;9.32;;;3.95;;
69900;SDS011;57183;50.930;5.406;2023-07-09T07:56:39;6.22;;;3.85;;
69900;SDS011;57183;50.930;5.406;2023-07-09T07:59:06;4.13;;;3.33;;
69900;SDS011;57183;50.930;5.406;2023-07-09T08:01:32;4.93;;;3.17;;
69900;SDS011;57183;50.930;5.406;2023-07-09T08:04:00;4.72;;;3.67;;
69900;SDS011;57183;50.930;5.406;2023-07-09T08:06:29;5.85;;;3.83;;
69900;SDS011;57183;50.930;5.406;2023-07-09T08:08:56;4.30;;;3.22;;
69900;SDS011;57183;50.930;5.406;2023-07-09T08:11:22;6.80;;;3.67;;
69900;SDS011;57183;50.930;5.406;2023-07-09T08:13:49;7.15;;;3.75;;
69900;SDS011;57183;50.930;5.406;2023-07-09T08:16:14;5.40;;;3.45;;
69900;SDS011;57183;50.930;5.406;2023-07-09T08:18:41;6.80;;;3.08;;
69900;SDS011;57183;50.930;5.406;2023-07-09T08:21:06;6.80;;;3.25;;
69900;SDS011;57183;50.930;5.406;2023-07-09T08:23:32;5.50;;;3.28;;
69900;SDS011;57183;50.930;5.406;2023-07-09T08:25:59;5.55;;;3.65;;
69900;SDS011;57183;50.930;5.406;2023-07-09T08:28:27;7.78;;;3.40;;
69900;SDS011;57183;50.930;5.406;2023-07-09T08:30:57;6.22;;;4.05;;
69900;SDS011;57183;50.930;5.406;2023-07-09T08:33:22;6.10;;;3.20;;
69900;SDS011;57183;50.930;5.406;2023-07-09T08:35:49;3.90;;;3.30;;
69900;SDS011;57183;50.930;5.406;2023-07-09T08:38:16;6.78;;;3.75;;
69900;SDS011;57183;50.930;5.406;2023-07-09T08:40:43;3.60;;;3.30;;
69900;SDS011;57183;50.930;5.406;2023-07-09T08:43:39;7.40;;;3.13;;
69900;SDS011;57183;50.930;5.406;2023-07-09T08:48:58;3.13;;;2.72;;
69900;SDS011;57183;50.930;5.406;2023-07-09T08:51:29;4.10;;;3.30;;
69900;SDS011;57183;50.930;5.406;2023-07-09T08:54:01;5.72;;;3.38;;
69900;SDS011;57183;50.930;5.406;2023-07-09T08:56:27;4.75;;;3.20;;
69900;SDS011;57183;50.930;5.406;2023-07-09T08:58:56;5.85;;;4.60;;
69900;SDS011;57183;50.930;5.406;2023-07-09T09:01:34;3.38;;;3.08;;
69900;SDS011;57183;50.930;5.406;2023-07-09T09:04:15;8.70;;;3.33;;
69900;SDS011;57183;50.930;5.406;2023-07-09T09:06:57;3.77;;;3.00;;
69900;SDS011;57183;50.930;5.406;2023-07-09T09:09:36;3.67;;;3.10;;
69900;SDS011;57183;50.930;5.406;2023-07-09T09:12:15;5.60;;;3.30;;
69900;SDS011;57183;50.930;5.406;2023-07-09T09:14:53;5.35;;;3.53;;
69900;SDS011;57183;50.930;5.406;2023-07-09T09:17:23;6.00;;;3.70;;
69900;SDS011;57183;50.930;5.406;2023-07-09T09:19:59;4.97;;;3.28;;
69900;SDS011;57183;50.930;5.406;2023-07-09T09:22:51;6.90;;;3.22;;
69900;SDS011;57183;50.930;5.406;2023-07-09T09:25:28;5.03;;;3.20;;
69900;SDS011;57183;50.930;5.406;2023-07-09T09:30:24;4.47;;;3.33;;
69900;SDS011;57183;50.930;5.406;2023-07-09T09:32:59;5.00;;;3.08;;
69900;SDS011;57183;50.930;5.406;2023-07-09T09:35:31;4.82;;;3.58;;
69900;SDS011;57183;50.930;5.406;2023-07-09T09:38:01;3.33;;;2.60;;
69900;SDS011;57183;50.930;5.406;2023-07-09T09:40:34;4.78;;;2.80;;
69900;SDS011;57183;50.930;5.406;2023-07-09T09:43:01;5.15;;;2.80;;
69900;SDS011;57183;50.930;5.406;2023-07-09T09:45:34;3.92;;;3.28;;
69900;SDS011;57183;50.930;5.406;2023-07-09T09:48:14;7.30;;;5.07;;
69900;SDS011;57183;50.930;5.406;2023-07-09T09:50:54;6.00;;;4.53;;
69900;SDS011;57183;50.930;5.406;2023-07-09T09:53:25;12.65;;;6.50;;
69900;SDS011;57183;50.930;5.406;2023-07-09T09:55:53;4.47;;;3.40;;
69900;SDS011;57183;50.930;5.406;2023-07-09T09:58:20;4.60;;;3.85;;
69900;SDS011;57183;50.930;5.406;2023-07-09T10:00:50;5.25;;;3.53;;
69900;SDS011;57183;50.930;5.406;2023-07-09T10:03:17;9.10;;;4.95;;
69900;SDS011;57183;50.930;5.406;2023-07-09T10:05:44;6.50;;;3.90;;
69900;SDS011;57183;50.930;5.406;2023-07-09T10:11:22;4.07;;;3.35;;
69900;SDS011;57183;50.930;5.406;2023-07-09T10:13:59;7.35;;;3.63;;
69900;SDS011;57183;50.930;5.406;2023-07-09T10:16:32;5.03;;;3.03;;
69900;SDS011;57183;50.930;5.406;2023-07-09T10:19:14;6.03;;;3.55;;
69900;SDS011;57183;50.930;5.406;2023-07-09T10:27:31;3.70;;;3.28;;
69900;SDS011;57183;50.930;5.406;2023-07-09T10:33:11;4.00;;;2.97;;
69900;SDS011;57183;50.930;5.406;2023-07-09T10:35:44;4.32;;;3.53;;
69900;SDS011;57183;50.930;5.406;2023-07-09T10:41:23;4.20;;;3.22;;
69900;SDS011;57183;50.930;5.406;2023-07-09T10:46:37;4.43;;;3.50;;
69900;SDS011;57183;50.930;5.406;2023-07-09T10:49:05;3.58;;;3.20;;
69900;SDS011;57183;50.930;5.406;2023-07-09T10:51:40;6.65;;;3.42;;
69900;SDS011;57183;50.930;5.406;2023-07-09T10:54:10;13.32;;;10.32;;
69900;SDS011;57183;50.930;5.406;2023-07-09T10:56:47;6.50;;;3.90;;
69900;SDS011;57183;50.930;5.406;2023-07-09T11:01:55;9.88;;;4.80;;
69900;SDS011;57183;50.930;5.406;2023-07-09T11:04:43;5.78;;;3.15;;
69900;SDS011;57183;50.930;5.406;2023-07-09T11:07:15;11.23;;;6.53;;
69900;SDS011;57183;50.930;5.406;2023-07-09T11:09:46;7.53;;;4.82;;
69900;SDS011;57183;50.930;5.406;2023-07-09T11:12:29;4.57;;;3.90;;
69900;SDS011;57183;50.930;5.406;2023-07-09T11:14:57;6.82;;;3.35;;
69900;SDS011;57183;50.930;5.406;2023-07-09T11:17:26;5.00;;;3.65;;
69900;SDS011;57183;50.930;5.406;2023-07-09T11:19:53;4.35;;;3.65;;
69900;SDS011;57183;50.930;5.406;2023-07-09T11:22:22;4.55;;;3.58;;
69900;SDS011;57183;50.930;5.406;2023-07-09T11:24:52;5.20;;;3.17;;
69900;SDS011;57183;50.930;5.406;2023-07-09T11:27:30;3.15;;;2.65;;
69900;SDS011;57183;50.930;5.406;2023-07-09T11:30:15;6.45;;;3.22;;
69900;SDS011;57183;50.930;5.406;2023-07-09T11:32:56;4.13;;;3.55;;
69900;SDS011;57183;50.930;5.406;2023-07-09T11:35:24;4.50;;;2.80;;
69900;SDS011;57183;50.930;5.406;2023-07-09T11:37:51;6.50;;;3.10;;
69900;SDS011;57183;50.930;5.406;2023-07-09T11:40:18;4.15;;;3.38;;
69900;SDS011;57183;50.930;5.406;2023-07-09T11:42:50;5.45;;;3.25;;
69900;SDS011;57183;50.930;5.406;2023-07-09T11:45:17;5.75;;;3.15;;
69900;SDS011;57183;50.930;5.406;2023-07-09T11:47:55;3.92;;;3.00;;
69900;SDS011;57183;50.930;5.406;2023-07-09T11:50:37;4.28;;;2.70;;
69900;SDS011;57183;50.930;5.406;2023-07-09T11:55:56;3.78;;;3.15;;
69900;SDS011;57183;50.930;5.406;2023-07-09T11:58:21;5.60;;;3.50;;
69900;SDS011;57183;50.930;5.406;2023-07-09T12:00:48;4.60;;;3.08;;
69900;SDS011;57183;50.930;5.406;2023-07-09T12:03:19;4.57;;;3.47;;
69900;SDS011;57183;50.930;5.406;2023-07-09T12:05:52;4.40;;;2.90;;
69900;SDS011;57183;50.930;5.406;2023-07-09T12:08:22;5.75;;;3.33;;
69900;SDS011;57183;50.930;5.406;2023-07-09T12:11:01;4.38;;;3.63;;
69900;SDS011;57183;50.930;5.406;2023-07-09T12:13:27;5.60;;;3.45;;
69900;SDS011;57183;50.930;5.406;2023-07-09T12:15:53;5.18;;;3.35;;
69900;SDS011;57183;50.930;5.406;2023-07-09T12:18:19;7.25;;;3.97;;
69900;SDS011;57183;50.930;5.406;2023-07-09T12:20:47;5.22;;;4.43;;
69900;SDS011;57183;50.930;5.406;2023-07-09T12:23:27;5.20;;;4.22;;
69900;SDS011;57183;50.930;5.406;2023-07-09T12:25:56;6.28;;;5.38;;
69900;SDS011;57183;50.930;5.406;2023-07-09T12:28:26;6.72;;;5.47;;
69900;SDS011;57183;50.930;5.406;2023-07-09T12:30:53;5.90;;;5.38;;
69900;SDS011;57183;50.930;5.406;2023-07-09T12:33:20;9.18;;;5.72;;
69900;SDS011;57183;50.930;5.406;2023-07-09T12:35:48;8.50;;;6.63;;
69900;SDS011;57183;50.930;5.406;2023-07-09T12:38:20;11.70;;;6.20;;
69900;SDS011;57183;50.930;5.406;2023-07-09T12:40:50;8.05;;;5.60;;
69900;SDS011;57183;50.930;5.406;2023-07-09T12:43:19;8.77;;;6.93;;
69900;SDS011;57183;50.930;5.406;2023-07-09T12:45:51;7.63;;;6.75;;
69900;SDS011;57183;50.930;5.406;2023-07-09T12:48:18;8.98;;;7.22;;
69900;SDS011;57183;50.930;5.406;2023-07-09T12:50:49;12.18;;;8.13;;
69900;SDS011;57183;50.930;5.406;2023-07-09T12:53:17;11.57;;;7.75;;
69900;SDS011;57183;50.930;5.406;2023-07-09T12:55:46;10.98;;;8.88;;
69900;SDS011;57183;50.930;5.406;2023-07-09T12:58:21;10.00;;;8.48;;
69900;SDS011;57183;50.930;5.406;2023-07-09T13:00:50;11.05;;;8.38;;
69900;SDS011;57183;50.930;5.406;2023-07-09T13:03:21;10.00;;;8.18;;
69900;SDS011;57183;50.930;5.406;2023-07-09T13:06:02;11.60;;;7.47;;
69900;SDS011;57183;50.930;5.406;2023-07-09T13:08:30;10.95;;;6.95;;
69900;SDS011;57183;50.930;5.406;2023-07-09T13:10:59;7.97;;;6.57;;
69900;SDS011;57183;50.930;5.406;2023-07-09T13:13:26;7.93;;;6.72;;
69900;SDS011;57183;50.930;5.406;2023-07-09T13:15:59;10.57;;;7.45;;
69900;SDS011;57183;50.930;5.406;2023-07-09T13:18:27;8.15;;;6.68;;
69900;SDS011;57183;50.930;5.406;2023-07-09T13:20:54;7.43;;;5.90;;
69900;SDS011;57183;50.930;5.406;2023-07-09T13:23:22;7.43;;;6.72;;
69900;SDS011;57183;50.930;5.406;2023-07-09T13:25:52;7.45;;;6.25;;
69900;SDS011;57183;50.930;5.406;2023-07-09T13:28:25;7.82;;;6.22;;
69900;SDS011;57183;50.930;5.406;2023-07-09T13:30:52;6.70;;;5.97;;
69900;SDS011;57183;50.930;5.406;2023-07-09T13:33:25;10.40;;;5.40;;
69900;SDS011;57183;50.930;5.406;2023-07-09T13:35:51;8.00;;;6.43;;
69900;SDS011;57183;50.930;5.406;2023-07-09T13:38:19;6.10;;;5.15;;
69900;SDS011;57183;50.930;5.406;2023-07-09T13:40:47;10.13;;;5.57;;
69900;SDS011;57183;50.930;5.406;2023-07-09T13:43:18;5.90;;;4.85;;
69900;SDS011;57183;50.930;5.406;2023-07-09T13:45:51;7.72;;;5.65;;
69900;SDS011;57183;50.930;5.406;2023-07-09T13:48:18;5.90;;;5.18;;
69900;SDS011;57183;50.930;5.406;2023-07-09T13:50:46;6.53;;;4.53;;
69900;SDS011;57183;50.930;5.406;2023-07-09T13:53:15;7.50;;;4.72;;
69900;SDS011;57183;50.930;5.406;2023-07-09T13:55:44;9.88;;;6.20;;
69900;SDS011;57183;50.930;5.406;2023-07-09T13:58:12;8.93;;;4.65;;
69900;SDS011;57183;50.930;5.406;2023-07-09T14:00:40;5.43;;;4.43;;
69900;SDS011;57183;50.930;5.406;2023-07-09T14:03:18;6.13;;;4.65;;
69900;SDS011;57183;50.930;5.406;2023-07-09T14:05:49;9.35;;;4.60;;
69900;SDS011;57183;50.930;5.406;2023-07-09T14:08:15;6.20;;;5.63;;
69900;SDS011;57183;50.930;5.406;2023-07-09T14:10:41;7.22;;;4.13;;
69900;SDS011;57183;50.930;5.406;2023-07-09T14:13:14;6.55;;;4.13;;
69900;SDS011;57183;50.930;5.406;2023-07-09T14:15:42;5.13;;;3.92;;
69900;SDS011;57183;50.930;5.406;2023-07-09T14:18:15;6.38;;;4.93;;
69900;SDS011;57183;50.930;5.406;2023-07-09T14:20:42;2.50;;;1.90;;
69900;SDS011;57183;50.930;5.406;2023-07-09T14:23:10;4.10;;;3.28;;
69900;SDS011;57183;50.930;5.406;2023-07-09T14:25:41;6.38;;;3.40;;
69900;SDS011;57183;50.930;5.406;2023-07-09T14:28:18;3.67;;;3.15;;
69900;SDS011;57183;50.930;5.406;2023-07-09T14:30:46;4.68;;;2.45;;
69900;SDS011;57183;50.930;5.406;2023-07-09T14:33:15;3.65;;;2.53;;
69900;SDS011;57183;50.930;5.406;2023-07-09T14:35:42;5.13;;;2.80;;
69900;SDS011;57183;50.930;5.406;2023-07-09T14:38:15;6.57;;;2.78;;
69900;SDS011;57183;50.930;5.406;2023-07-09T14:40:49;3.20;;;2.90;;
69900;SDS011;57183;50.930;5.406;2023-07-09T14:43:17;3.30;;;2.60;;
69900;SDS011;57183;50.930;5.406;2023-07-09T14:45:43;6.25;;;2.42;;
69900;SDS011;57183;50.930;5.406;2023-07-09T14:48:16;2.95;;;2.28;;
69900;SDS011;57183;50.930;5.406;2023-07-09T14:50:43;3.88;;;2.72;;
69900;SDS011;57183;50.930;5.406;2023-07-09T14:53:17;6.65;;;2.97;;
69900;SDS011;57183;50.930;5.406;2023-07-09T14:55:48;2.90;;;2.22;;
69900;SDS011;57183;50.930;5.406;2023-07-09T14:58:16;4.63;;;2.80;;
69900;SDS011;57183;50.930;5.406;2023-07-09T15:00:43;2.75;;;2.35;;
69900;SDS011;57183;50.930;5.406;2023-07-09T15:03:11;4.15;;;2.40;;
69900;SDS011;57183;50.930;5.406;2023-07-09T15:05:47;3.33;;;2.35;;
69900;SDS011;57183;50.930;5.406;2023-07-09T15:08:14;5.28;;;2.63;;
69900;SDS011;57183;50.930;5.406;2023-07-09T15:10:44;3.25;;;2.42;;
69900;SDS011;57183;50.930;5.406;2023-07-09T15:13:15;6.88;;;2.90;;
69900;SDS011;57183;50.930;5.406;2023-07-09T15:15:53;5.28;;;3.03;;
69900;SDS011;57183;50.930;5.406;2023-07-09T15:18:19;4.18;;;2.83;;
69900;SDS011;57183;50.930;5.406;2023-07-09T15:20:49;4.40;;;2.95;;
69900;SDS011;57183;50.930;5.406;2023-07-09T15:25:47;2.90;;;2.60;;
69900;SDS011;57183;50.930;5.406;2023-07-09T15:28:14;4.00;;;3.60;;
69900;SDS011;57183;50.930;5.406;2023-07-09T15:30:39;4.60;;;3.33;;